TimeCDT,TemperatureF,Dew PointF,Humidity,Sea Level PressureIn,VisibilityMPH,Wind Direction,Wind SpeedMPH,Gust SpeedMPH,PrecipitationIn,Events,Conditions,WindDirDegrees,DateUTC
12:15 AM,51.8,44.6,76,30.16,10.0,North,15.0,25.3,N/A,,Overcast,10,2012-10-27 05:15:00
12:35 AM,51.8,44.6,76,30.16,10.0,North,15.0,21.9,N/A,,Overcast,10,2012-10-27 05:35:00
12:55 AM,51.8,44.6,76,30.15,10.0,North,13.8,20.7,N/A,,Overcast,10,2012-10-27 05:55:00
1:15 AM,51.8,44.6,76,30.16,10.0,North,13.8,19.6,N/A,,Overcast,10,2012-10-27 06:15:00
1:35 AM,51.8,44.6,76,30.15,10.0,North,12.7,21.9,N/A,,Overcast,10,2012-10-27 06:35:00
1:55 AM,51.8,44.6,76,30.15,10.0,North,11.5,-,N/A,,Overcast,10,2012-10-27 06:55:00
2:15 AM,51.8,44.6,76,30.15,10.0,North,13.8,18.4,N/A,,Overcast,10,2012-10-27 07:15:00
2:55 AM,51.8,44.6,76,30.14,10.0,North,9.2,-,N/A,,Overcast,360,2012-10-27 07:55:00
3:15 AM,51.8,44.6,76,30.14,10.0,North,9.2,-,N/A,,Overcast,360,2012-10-27 08:15:00
3:35 AM,51.8,42.8,71,30.13,10.0,North,10.4,-,N/A,,Overcast,10,2012-10-27 08:35:00
3:55 AM,50.0,42.8,76,30.13,10.0,North,9.2,-,N/A,,Scattered Clouds,10,2012-10-27 08:55:00
4:15 AM,50.0,42.8,76,30.13,10.0,North,10.4,-,N/A,,Clear,10,2012-10-27 09:15:00
4:35 AM,50.0,42.8,76,30.13,10.0,North,12.7,-,N/A,,Scattered Clouds,10,2012-10-27 09:35:00
4:55 AM,50.0,42.8,76,30.13,10.0,North,11.5,-,N/A,,Mostly Cloudy,10,2012-10-27 09:55:00
5:15 AM,50.0,42.8,76,30.13,10.0,North,9.2,-,N/A,,Scattered Clouds,360,2012-10-27 10:15:00
5:35 AM,50.0,44.6,82,30.13,10.0,North,6.9,-,N/A,,Clear,360,2012-10-27 10:35:00
5:55 AM,50.0,44.6,82,30.14,10.0,North,6.9,-,N/A,,Mostly Cloudy,350,2012-10-27 10:55:00
6:15 AM,50.0,44.6,82,30.15,10.0,North,10.4,16.1,N/A,,Overcast,350,2012-10-27 11:15:00
6:55 AM,46.4,44.6,93,30.16,10.0,NNW,8.1,-,N/A,,Clear,340,2012-10-27 11:55:00
7:15 AM,46.4,44.6,93,30.16,10.0,NNW,6.9,-,N/A,,Clear,340,2012-10-27 12:15:00
7:35 AM,46.4,44.6,93,30.17,10.0,NNW,6.9,-,N/A,,Clear,340,2012-10-27 12:35:00
7:55 AM,46.4,44.6,93,30.18,10.0,NNW,8.1,-,N/A,,Mostly Cloudy,340,2012-10-27 12:55:00
8:15 AM,48.2,44.6,87,30.18,10.0,North,9.2,-,N/A,,Overcast,350,2012-10-27 13:15:00
8:35 AM,48.2,44.6,87,30.19,10.0,NNW,11.5,-,N/A,,Mostly Cloudy,340,2012-10-27 13:35:00
8:55 AM,50.0,44.6,82,30.20,10.0,NNW,11.5,-,N/A,,Scattered Clouds,340,2012-10-27 13:55:00
9:15 AM,50.0,42.8,76,30.20,10.0,North,16.1,20.7,N/A,,Clear,360,2012-10-27 14:15:00
9:35 AM,51.8,41.0,67,30.20,10.0,North,11.5,19.6,N/A,,Clear,360,2012-10-27 14:35:00
10:35 AM,55.4,37.4,51,30.19,10.0,North,17.3,23.0,N/A,,Clear,360,2012-10-27 15:35:00
10:55 AM,55.4,37.4,51,30.20,10.0,North,17.3,24.2,N/A,,Clear,360,2012-10-27 15:55:00
11:15 AM,57.2,37.4,48,30.20,10.0,North,16.1,23.0,N/A,,Clear,360,2012-10-27 16:15:00
11:35 AM,59.0,37.4,45,30.19,10.0,North,12.7,27.6,N/A,,Clear,360,2012-10-27 16:35:00
11:55 AM,59.0,37.4,45,30.18,10.0,North,17.3,24.2,N/A,,Clear,360,2012-10-27 16:55:00
12:15 PM,60.8,37.4,42,30.18,10.0,North,16.1,24.2,N/A,,Clear,350,2012-10-27 17:15:00
12:35 PM,60.8,37.4,42,30.16,10.0,NNW,16.1,23.0,N/A,,Clear,340,2012-10-27 17:35:00
12:55 PM,60.8,37.4,42,30.15,10.0,North,15.0,-,N/A,,Clear,350,2012-10-27 17:55:00
1:15 PM,62.6,37.4,39,30.14,10.0,North,16.1,23.0,N/A,,Clear,360,2012-10-27 18:15:00
1:35 PM,62.6,37.4,39,30.12,10.0,North,19.6,23.0,N/A,,Clear,360,2012-10-27 18:35:00
1:55 PM,62.6,37.4,39,30.10,10.0,North,17.3,24.2,N/A,,Clear,350,2012-10-27 18:55:00
2:15 PM,62.6,37.4,39,30.10,10.0,North,15.0,23.0,N/A,,Clear,360,2012-10-27 19:15:00
2:35 PM,62.6,37.4,39,30.09,10.0,North,12.7,24.2,N/A,,Clear,360,2012-10-27 19:35:00
2:55 PM,62.6,37.4,39,30.08,10.0,North,19.6,25.3,N/A,,Clear,360,2012-10-27 19:55:00
3:15 PM,62.6,35.6,37,30.07,10.0,North,15.0,-,N/A,,Clear,10,2012-10-27 20:15:00
3:35 PM,62.6,35.6,37,30.07,10.0,North,18.4,23.0,N/A,,Clear,350,2012-10-27 20:35:00
3:55 PM,62.6,35.6,37,30.06,10.0,NNW,15.0,21.9,N/A,,Clear,340,2012-10-27 20:55:00
4:15 PM,62.6,35.6,37,30.06,10.0,North,17.3,21.9,N/A,,Clear,10,2012-10-27 21:15:00
4:35 PM,62.6,35.6,37,30.05,10.0,North,15.0,21.9,N/A,,Clear,350,2012-10-27 21:35:00
4:55 PM,62.6,37.4,39,30.05,10.0,North,12.7,18.4,N/A,,Clear,360,2012-10-27 21:55:00
5:15 PM,62.6,37.4,39,30.05,10.0,North,15.0,19.6,N/A,,Clear,360,2012-10-27 22:15:00
5:35 PM,60.8,35.6,39,30.06,10.0,NNW,12.7,18.4,N/A,,Clear,340,2012-10-27 22:35:00
5:55 PM,60.8,37.4,42,30.07,10.0,NNW,11.5,-,N/A,,Clear,340,2012-10-27 22:55:00
6:15 PM,59.0,35.6,42,30.07,10.0,North,12.7,-,N/A,,Clear,350,2012-10-27 23:15:00
6:35 PM,55.4,37.4,51,30.08,10.0,NNW,6.9,-,N/A,,Clear,340,2012-10-27 23:35:00
6:55 PM,53.6,37.4,54,30.09,10.0,North,8.1,-,N/A,,Clear,350,2012-10-27 23:55:00
7:15 PM,53.6,39.2,58,30.10,10.0,North,5.8,-,N/A,,Clear,350,2012-10-28 00:15:00
7:35 PM,51.8,41.0,67,30.11,10.0,NNW,4.6,-,N/A,,Clear,340,2012-10-28 00:35:00
7:55 PM,50.0,41.0,71,30.12,10.0,NNW,5.8,-,N/A,,Clear,340,2012-10-28 00:55:00
8:15 PM,46.4,41.0,81,30.13,10.0,NNW,4.6,-,N/A,,Clear,330,2012-10-28 01:15:00
8:35 PM,46.4,41.0,81,30.13,10.0,NNW,4.6,-,N/A,,Clear,330,2012-10-28 01:35:00
8:55 PM,48.2,41.0,76,30.14,10.0,NNW,3.5,-,N/A,,Clear,340,2012-10-28 01:55:00
9:15 PM,46.4,41.0,81,30.15,10.0,North,3.5,-,N/A,,Clear,350,2012-10-28 02:15:00
9:35 PM,48.2,41.0,76,30.15,10.0,North,5.8,-,N/A,,Clear,350,2012-10-28 02:35:00
9:55 PM,46.4,41.0,81,30.15,10.0,North,4.6,-,N/A,,Clear,360,2012-10-28 02:55:00
10:15 PM,46.4,41.0,81,30.16,10.0,North,3.5,-,N/A,,Clear,10,2012-10-28 03:15:00
10:35 PM,44.6,39.2,81,30.17,10.0,North,3.5,-,N/A,,Clear,350,2012-10-28 03:35:00
10:55 PM,44.6,39.2,81,30.17,10.0,NNW,3.5,-,N/A,,Clear,340,2012-10-28 03:55:00
11:35 PM,42.8,37.4,81,30.18,10.0,North,3.5,-,N/A,,Clear,350,2012-10-28 04:35:00
11:55 PM,44.6,39.2,81,30.18,10.0,North,4.6,-,N/A,,Clear,350,2012-10-28 04:55:00